Khanewal Weather



Khanewal's Current Weather

Temprature 29o smoke

smoke

Rain: 0 %

Min Temprature29o
Max Temprature29o
Humidity58
Wind Speed3.64 m/h
Sun Rise05:43:44
Sun Set18:46:48
Current Time: 23-Aug-2019 05:38:59
Lat/Lon: 30.3, 71.93




Khanewal's Geo Location



Khanewal's Weather Forecast

Time Overall Temp Min Temp Max Temp Humidity Wind Speed Rain
23-Aug-2019 (Fri)
08:00:00 clear sky 32.810 32.810 35.887 26 5.5 m/h 0 %
11:00:00 clear sky 38.640 38.640 40.950 19 4.32 m/h 0 %
14:00:00 clear sky 41.190 41.190 42.731 16 0.67 m/h 0 %
17:00:00 clear sky 42.540 42.540 43.311 13 3.59 m/h 0 %
20:00:00 clear sky 38.850 38.850 38.850 19 3.84 m/h 0 %
23:00:00 clear sky 36.942 36.942 36.942 22 7.16 m/h 0 %
24-Aug-2019 (Sat)
02:00:00 clear sky 35.231 35.231 35.231 26 8.02 m/h 0 %
05:00:00 clear sky 34.055 34.055 34.055 29 8.29 m/h 0 %
08:00:00 clear sky 36.287 36.287 36.287 30 9.21 m/h 0 %
11:00:00 clear sky 41.569 41.569 41.569 20 7.49 m/h 0 %
14:00:00 clear sky 43.969 43.969 43.969 15 6.37 m/h 0 %
17:00:00 clear sky 43.623 43.623 43.623 14 5.47 m/h 0 %
20:00:00 clear sky 39.150 39.150 39.150 19 5.9 m/h 0 %
23:00:00 clear sky 37.269 37.269 37.269 22 7.82 m/h 0 %
25-Aug-2019 (Sun)
02:00:00 clear sky 35.231 35.231 35.231 24 9.15 m/h 0 %
05:00:00 clear sky 34.557 34.557 34.557 22 8.81 m/h 0 %
08:00:00 clear sky 36.814 36.814 36.814 23 8.41 m/h 0 %
11:00:00 clear sky 41.816 41.816 41.816 20 9.06 m/h 0 %
14:00:00 clear sky 44.550 44.550 44.550 14 6.03 m/h 0 %
17:00:00 clear sky 44.150 44.150 44.150 13 3.13 m/h 0 %
20:00:00 clear sky 39.481 39.481 39.481 18 5.43 m/h 0 %
23:00:00 clear sky 37.311 37.311 37.311 23 7.74 m/h 0 %
26-Aug-2019 (Mon)
02:00:00 scattered clouds 35.765 35.765 35.765 27 8.17 m/h 0 %
05:00:00 broken clouds 33.950 33.950 33.950 30 5.25 m/h 0 %
08:00:00 scattered clouds 36.467 36.467 36.467 26 4.97 m/h 0 %
11:00:00 scattered clouds 42.072 42.072 42.072 17 2.29 m/h 0 %
14:00:00 clear sky 44.984 44.984 44.984 12 2.27 m/h 0 %
17:00:00 scattered clouds 44.020 44.020 44.020 12 1.52 m/h 0 %
20:00:00 overcast clouds 40.872 40.872 40.872 17 1.53 m/h 0 %
23:00:00 broken clouds 36.914 36.914 36.914 22 3 m/h 0 %
27-Aug-2019 (Tue)
02:00:00 broken clouds 34.016 34.016 34.016 39 5.42 m/h 0 %
05:00:00 broken clouds 33.550 33.550 33.550 40 5.69 m/h 0 %
08:00:00 overcast clouds 36.035 36.035 36.035 39 5.86 m/h 0 %
11:00:00 overcast clouds 41.336 41.336 41.336 25 4.27 m/h 0 %
14:00:00 overcast clouds 43.836 43.836 43.836 19 3.61 m/h 0 %
17:00:00 overcast clouds 40.665 40.665 40.665 25 6.03 m/h 0 %
20:00:00 scattered clouds 37.950 37.950 37.950 30 2.77 m/h 0 %
23:00:00 scattered clouds 35.850 35.850 35.850 36 3.47 m/h 0 %
28-Aug-2019 (Wed)
02:00:00 clear sky 34.657 34.657 34.657 38 2.35 m/h 0 %
05:00:00 clear sky 33.572 33.572 33.572 42 1.57 m/h 0 %

Famous Cities (61)